Time;durP1;ratioP1;P1;durP2;ratioP2;P2;SDS_P1;SDS_P2;PMS_P1;PMS_P2;Temp;Humidity;BMP_temperature;BMP_pressure;BME280_temperature;BME280_humidity;BME280_pressure;Samples;Min_cycle;Max_cycle;Signal;HPM_P1;HPM_P2
2023/07/22 00:00:28;;;;;;;10.23;10.03;;;13.30;99.90;;;;;;5024227;28;20999;-68
2023/07/22 00:02:55;;;;;;;9.30;9.10;;;13.40;99.90;;;;;;5026162;28;20583;-68
2023/07/22 00:05:23;;;;;;;9.73;9.53;;;13.40;99.90;;;;;;5027302;28;20471;-68
2023/07/22 00:07:50;;;;;;;9.87;9.67;;;13.50;99.90;;;;;;5025665;28;20453;-67
2023/07/22 00:10:17;;;;;;;10.37;10.17;;;13.50;99.90;;;;;;5010221;28;20461;-67
2023/07/22 00:12:44;;;;;;;9.93;9.73;;;13.60;99.90;;;;;;5022419;28;20469;-68
2023/07/22 00:15:14;;;;;;;9.90;9.70;;;13.60;99.90;;;;;;5018055;28;20887;-68
2023/07/22 00:17:42;;;;;;;10.10;9.90;;;13.70;99.90;;;;;;5018948;28;20555;-67
2023/07/22 00:20:11;;;;;;;10.17;9.97;;;13.70;99.90;;;;;;5020309;28;20492;-67
2023/07/22 00:22:39;;;;;;;9.80;9.60;;;13.70;99.90;;;;;;5025643;28;20536;-68
2023/07/22 00:25:09;;;;;;;9.97;9.77;;;13.80;99.90;;;;;;5025195;28;20550;-67
2023/07/22 00:27:36;;;;;;;9.90;9.70;;;13.80;99.90;;;;;;5030728;28;20767;-68
2023/07/22 00:30:04;;;;;;;10.47;10.27;;;13.70;99.90;;;;;;5030614;28;20461;-68
2023/07/22 00:32:33;;;;;;;9.50;9.30;;;13.60;99.90;;;;;;5027691;28;20522;-68
2023/07/22 00:34:59;;;;;;;10.13;9.93;;;13.50;99.90;;;;;;5022144;28;20896;-67
2023/07/22 00:37:27;;;;;;;10.20;10.00;;;13.40;99.90;;;;;;5030404;28;20460;-68
2023/07/22 00:39:54;;;;;;;10.40;10.20;;;13.20;99.90;;;;;;5030114;28;20948;-68
2023/07/22 00:42:21;;;;;;;10.03;9.83;;;13.20;99.90;;;;;;5026066;28;20527;-68
2023/07/22 00:44:49;;;;;;;10.10;9.90;;;13.10;99.90;;;;;;5030836;28;20648;-68
2023/07/22 00:47:17;;;;;;;9.93;9.73;;;13.00;99.90;;;;;;5030345;28;20874;-67
2023/07/22 00:49:48;;;;;;;9.67;9.47;;;12.80;99.90;;;;;;5021930;28;20473;-68
2023/07/22 00:52:16;;;;;;;9.77;9.57;;;12.70;99.90;;;;;;5024452;28;20501;-67
2023/07/22 00:54:44;;;;;;;9.77;9.57;;;12.60;99.90;;;;;;5028730;28;21039;-68
2023/07/22 00:57:13;;;;;;;9.87;9.67;;;12.70;99.90;;;;;;5028355;28;20554;-67
2023/07/22 00:59:41;;;;;;;9.50;9.30;;;12.70;99.90;;;;;;5022405;28;20493;-68
2023/07/22 01:02:08;;;;;;;10.10;9.90;;;12.60;99.90;;;;;;5029631;28;20583;-68
2023/07/22 01:04:36;;;;;;;10.07;9.87;;;12.60;99.90;;;;;;5026100;28;20472;-68
2023/07/22 01:07:06;;;;;;;9.90;9.70;;;12.70;99.90;;;;;;5021049;28;20567;-68
2023/07/22 01:09:36;;;;;;;9.33;9.13;;;12.80;99.90;;;;;;5020358;28;20540;-68
2023/07/22 01:12:05;;;;;;;9.30;9.10;;;12.90;99.90;;;;;;5025838;28;20540;-68
2023/07/22 01:14:34;;;;;;;9.40;9.20;;;12.90;99.90;;;;;;5029535;28;20452;-67
2023/07/22 01:17:03;;;;;;;9.40;9.20;;;13.00;99.90;;;;;;5027738;28;20464;-68
2023/07/22 01:19:30;;;;;;;9.03;8.90;;;13.10;99.90;;;;;;5023299;28;20472;-67
2023/07/22 01:22:00;;;;;;;9.50;9.30;;;13.10;99.90;;;;;;5022855;28;20606;-68
2023/07/22 01:24:29;;;;;;;9.33;9.13;;;13.20;99.90;;;;;;5023936;28;20474;-68
2023/07/22 01:26:57;;;;;;;9.30;9.10;;;13.30;99.90;;;;;;5029575;28;20469;-68
2023/07/22 01:29:25;;;;;;;9.40;9.20;;;13.30;99.90;;;;;;5023198;28;20961;-68
2023/07/22 01:31:54;;;;;;;9.80;9.60;;;13.40;99.90;;;;;;5023154;28;20462;-68
2023/07/22 01:34:21;;;;;;;9.97;9.77;;;13.30;99.90;;;;;;5027154;28;20548;-67
2023/07/22 01:36:50;;;;;;;9.80;9.60;;;13.30;99.90;;;;;;5029413;28;20468;-68
2023/07/22 01:39:18;;;;;;;9.83;9.63;;;13.30;99.90;;;;;;5029495;28;20488;-68
2023/07/22 01:41:47;;;;;;;10.07;9.87;;;13.20;99.90;;;;;;5016780;28;20488;-68
2023/07/22 01:44:13;;;;;;;10.03;9.83;;;13.00;99.90;;;;;;5020942;28;20908;-67
2023/07/22 01:46:42;;;;;;;10.03;9.83;;;12.90;99.90;;;;;;5026581;28;20453;-67
2023/07/22 01:49:12;;;;;;;10.07;9.87;;;12.80;99.90;;;;;;5018455;28;20492;-68
2023/07/22 01:51:40;;;;;;;9.90;9.70;;;12.70;99.90;;;;;;5028973;28;20464;-68
2023/07/22 01:54:07;;;;;;;9.67;9.47;;;12.70;99.90;;;;;;5019131;28;20584;-67
2023/07/22 01:56:34;;;;;;;9.97;9.77;;;12.70;99.90;;;;;;5028463;28;21023;-67
2023/07/22 01:59:03;;;;;;;9.80;9.60;;;12.60;99.90;;;;;;5018769;28;20931;-68
2023/07/22 02:01:29;;;;;;;9.27;9.07;;;12.60;99.90;;;;;;5024303;28;20472;-67
2023/07/22 02:03:57;;;;;;;9.40;9.20;;;12.60;99.90;;;;;;5023022;28;20466;-68
2023/07/22 02:06:24;;;;;;;9.50;9.30;;;12.50;99.90;;;;;;5029126;28;20983;-67
2023/07/22 02:08:51;;;;;;;9.83;9.63;;;12.50;99.90;;;;;;5029222;28;20476;-68
2023/07/22 02:11:18;;;;;;;9.27;9.07;;;12.40;99.90;;;;;;5022058;28;20464;-68
2023/07/22 02:13:45;;;;;;;9.47;9.27;;;12.40;99.90;;;;;;5027448;28;20453;-67
2023/07/22 02:16:13;;;;;;;9.40;9.20;;;12.40;99.90;;;;;;5028981;28;20507;-67
2023/07/22 02:18:40;;;;;;;8.97;8.83;;;12.40;99.90;;;;;;5026442;28;20457;-67
2023/07/22 02:21:07;;;;;;;8.70;8.60;;;12.50;99.90;;;;;;5021757;28;20465;-68
2023/07/22 02:23:34;;;;;;;9.20;9.00;;;12.40;99.90;;;;;;5023382;28;20508;-67
2023/07/22 02:26:02;;;;;;;9.70;9.50;;;12.40;99.90;;;;;;5025831;28;20898;-67
2023/07/22 02:28:29;;;;;;;9.10;8.90;;;12.40;99.90;;;;;;5027900;28;20484;-68
2023/07/22 02:30:56;;;;;;;9.37;9.17;;;12.40;99.90;;;;;;5023593;28;21056;-67
2023/07/22 02:33:25;;;;;;;8.73;8.63;;;12.40;99.90;;;;;;5018286;28;20469;-67
2023/07/22 02:35:52;;;;;;;8.97;8.83;;;12.40;99.90;;;;;;5023907;28;20468;-67
2023/07/22 02:38:19;;;;;;;9.30;9.10;;;12.40;99.90;;;;;;5025548;28;21062;-67
2023/07/22 02:40:46;;;;;;;8.87;8.77;;;12.30;99.90;;;;;;5025045;28;20461;-67
2023/07/22 02:43:13;;;;;;;9.07;8.87;;;12.30;99.90;;;;;;5028438;28;20492;-67
2023/07/22 02:45:41;;;;;;;9.20;9.00;;;12.30;99.90;;;;;;5024530;28;20469;-68
2023/07/22 02:48:09;;;;;;;9.17;8.97;;;12.30;99.90;;;;;;5021396;28;20471;-67
2023/07/22 02:50:37;;;;;;;8.77;8.67;;;12.30;99.90;;;;;;5020505;28;20810;-68
2023/07/22 02:53:04;;;;;;;8.67;8.57;;;12.20;99.90;;;;;;5029752;28;20501;-67
2023/07/22 02:55:31;;;;;;;8.67;8.57;;;12.20;99.90;;;;;;5021648;28;20462;-67
2023/07/22 02:57:58;;;;;;;8.87;8.77;;;12.20;99.90;;;;;;5028500;28;20510;-68
2023/07/22 03:00:25;;;;;;;8.40;8.30;;;12.10;99.90;;;;;;5025702;28;20504;-68
2023/07/22 03:02:53;;;;;;;8.50;8.40;;;12.20;99.90;;;;;;5021196;28;20580;-67
2023/07/22 03:05:21;;;;;;;9.10;8.90;;;12.10;99.90;;;;;;5015846;28;20448;-68
2023/07/22 03:07:49;;;;;;;8.53;8.43;;;12.10;99.90;;;;;;5020972;28;20974;-67
2023/07/22 03:10:16;;;;;;;8.60;8.50;;;12.10;99.90;;;;;;5028392;28;20471;-68
2023/07/22 03:12:43;;;;;;;7.93;7.83;;;12.00;99.90;;;;;;5024342;28;20883;-68
2023/07/22 03:15:12;;;;;;;8.90;8.80;;;11.80;99.90;;;;;;5020181;28;20489;-68
2023/07/22 03:17:41;;;;;;;8.43;8.33;;;11.80;99.90;;;;;;5025303;28;20493;-68
2023/07/22 03:20:14;;;;;;;8.27;8.17;;;11.80;99.90;;;;;;5027846;28;20546;-67
2023/07/22 03:22:42;;;;;;;8.57;8.47;;;11.80;99.90;;;;;;5019933;28;20521;-67
2023/07/22 03:25:11;;;;;;;8.40;8.30;;;11.80;99.90;;;;;;5026961;28;20468;-68
2023/07/22 03:27:38;;;;;;;8.10;8.00;;;11.80;99.90;;;;;;5025076;28;20464;-67
2023/07/22 03:30:07;;;;;;;8.73;8.63;;;11.80;99.90;;;;;;5021313;28;20466;-68
2023/07/22 03:32:34;;;;;;;8.23;8.13;;;11.80;99.90;;;;;;5019383;28;20552;-68
2023/07/22 03:35:02;;;;;;;8.60;8.50;;;11.80;99.90;;;;;;5027911;28;21299;-68
2023/07/22 03:37:29;;;;;;;8.07;7.97;;;11.90;99.90;;;;;;5028198;28;20788;-68
2023/07/22 03:39:56;;;;;;;8.73;8.63;;;11.90;99.90;;;;;;5024452;28;20461;-68
2023/07/22 03:42:26;;;;;;;8.70;8.60;;;12.10;99.90;;;;;;5020649;28;20480;-67
2023/07/22 03:44:53;;;;;;;8.63;8.53;;;12.20;99.90;;;;;;5024330;28;20496;-67
2023/07/22 03:47:20;;;;;;;9.20;9.00;;;12.40;99.90;;;;;;5020173;28;20552;-68
2023/07/22 03:49:48;;;;;;;8.50;8.40;;;12.40;99.90;;;;;;5020010;28;20483;-68
2023/07/22 03:52:18;;;;;;;8.40;8.30;;;12.40;99.90;;;;;;5032537;28;20824;-67
2023/07/22 03:54:45;;;;;;;8.43;8.33;;;12.30;99.90;;;;;;5022434;28;20958;-68
2023/07/22 03:57:12;;;;;;;9.17;8.97;;;12.40;99.90;;;;;;5022611;28;20468;-67
2023/07/22 03:59:42;;;;;;;8.60;8.50;;;12.30;99.90;;;;;;5025950;28;20511;-67
2023/07/22 04:02:10;;;;;;;9.13;8.97;;;12.30;99.90;;;;;;5027489;28;20467;-68
2023/07/22 04:04:37;;;;;;;8.70;8.60;;;12.50;99.90;;;;;;5031312;28;20461;-68
2023/07/22 04:07:07;;;;;;;9.50;9.30;;;12.60;99.90;;;;;;5029200;28;20457;-68
2023/07/22 04:09:34;;;;;;;9.57;9.37;;;12.70;99.90;;;;;;5019346;28;20547;-68
2023/07/22 04:12:01;;;;;;;10.00;9.80;;;12.90;99.90;;;;;;5022695;28;20460;-67
2023/07/22 04:14:28;;;;;;;9.30;9.10;;;12.90;99.90;;;;;;5030807;28;20479;-68
2023/07/22 04:16:57;;;;;;;9.23;9.03;;;13.10;99.90;;;;;;5031390;28;20864;-68
2023/07/22 04:19:24;;;;;;;9.33;9.13;;;13.20;99.90;;;;;;5031008;28;20476;-67
2023/07/22 04:21:52;;;;;;;9.00;8.80;;;13.20;99.90;;;;;;5027779;28;20802;-67
2023/07/22 04:24:19;;;;;;;9.27;9.07;;;13.30;99.90;;;;;;5030608;28;20492;-67
2023/07/22 04:26:47;;;;;;;10.00;9.80;;;13.40;99.90;;;;;;5023972;28;20462;-67
2023/07/22 04:29:15;;;;;;;9.83;9.63;;;13.40;99.90;;;;;;5023186;28;20467;-67
2023/07/22 04:31:42;;;;;;;10.00;9.80;;;13.50;99.90;;;;;;5030871;28;20552;-68
2023/07/22 04:34:12;;;;;;;9.40;9.20;;;13.60;99.90;;;;;;5028172;28;20460;-67
2023/07/22 04:36:40;;;;;;;9.60;9.40;;;13.60;99.90;;;;;;5030917;28;20452;-68
2023/07/22 04:39:07;;;;;;;10.07;9.87;;;13.60;99.90;;;;;;5028101;28;20461;-68
2023/07/22 04:41:34;;;;;;;9.93;9.73;;;13.60;99.90;;;;;;5021076;28;20465;-68
2023/07/22 04:44:02;;;;;;;9.63;9.43;;;13.60;99.90;;;;;;5030785;28;20492;-68
2023/07/22 04:46:29;;;;;;;10.23;10.03;;;13.70;99.90;;;;;;5024392;28;20469;-67
2023/07/22 04:48:57;;;;;;;10.50;10.30;;;13.70;99.90;;;;;;5023847;28;20468;-67
2023/07/22 04:51:28;;;;;;;9.87;9.67;;;13.70;99.90;;;;;;5022480;28;20526;-67
2023/07/22 04:53:54;;;;;;;10.20;10.00;;;13.70;99.90;;;;;;5026243;28;20468;-69
2023/07/22 04:56:21;;;;;;;10.17;9.97;;;13.60;99.90;;;;;;5024997;28;20473;-68
2023/07/22 04:58:49;;;;;;;9.97;9.77;;;13.60;99.90;;;;;;5026831;28;20488;-68
2023/07/22 05:01:16;;;;;;;10.07;9.87;;;13.50;99.90;;;;;;5026849;28;20822;-68
2023/07/22 05:03:43;;;;;;;10.30;10.10;;;13.50;99.90;;;;;;5022594;28;20493;-68
2023/07/22 05:06:11;;;;;;;10.07;9.87;;;13.40;99.90;;;;;;5025738;28;20456;-67
2023/07/22 05:08:41;;;;;;;9.90;9.70;;;13.50;99.90;;;;;;5026714;28;20551;-68
2023/07/22 05:11:08;;;;;;;10.00;9.80;;;13.50;99.90;;;;;;5023146;28;20461;-68
2023/07/22 05:13:35;;;;;;;10.30;10.10;;;13.60;99.90;;;;;;5025448;28;20500;-69
2023/07/22 05:16:02;;;;;;;10.30;10.10;;;13.60;99.90;;;;;;5019544;28;20587;-68
2023/07/22 05:18:29;;;;;;;10.50;10.30;;;13.70;99.90;;;;;;5024067;28;20464;-67
2023/07/22 05:20:56;;;;;;;10.20;10.00;;;13.70;99.90;;;;;;5016295;28;20704;-68
2023/07/22 05:23:23;;;;;;;9.80;9.60;;;13.80;99.90;;;;;;5023311;28;21038;-68
2023/07/22 05:25:54;;;;;;;10.30;10.10;;;13.80;99.90;;;;;;5014878;28;20502;-68
2023/07/22 05:28:21;;;;;;;10.17;9.97;;;13.70;99.90;;;;;;5028627;28;20488;-67
2023/07/22 05:30:48;;;;;;;10.20;10.00;;;13.70;99.90;;;;;;5023385;28;20889;-68
2023/07/22 05:33:15;;;;;;;10.33;10.13;;;13.70;99.90;;;;;;5028488;28;20479;-67
2023/07/22 05:35:42;;;;;;;10.47;10.27;;;13.70;99.90;;;;;;5023466;28;20469;-67
2023/07/22 05:38:09;;;;;;;9.83;9.63;;;13.80;99.90;;;;;;5028758;28;20503;-68
2023/07/22 05:40:37;;;;;;;10.00;9.80;;;13.90;99.90;;;;;;5028712;28;20488;-68
2023/07/22 05:43:05;;;;;;;9.73;9.53;;;13.80;99.90;;;;;;5025846;28;20987;-67
2023/07/22 05:45:32;;;;;;;10.80;10.60;;;13.90;99.90;;;;;;5027471;28;20514;-67
2023/07/22 05:47:59;;;;;;;10.53;10.33;;;14.00;99.90;;;;;;5022396;28;20500;-68
2023/07/22 05:50:26;;;;;;;10.67;10.47;;;14.20;99.90;;;;;;5026235;28;20951;-68
2023/07/22 05:52:54;;;;;;;11.00;10.70;;;14.40;99.90;;;;;;5022241;28;20518;-68
2023/07/22 05:55:21;;;;;;;11.40;11.10;;;14.60;99.90;;;;;;5027258;28;20461;-68
2023/07/22 05:57:48;;;;;;;10.70;10.50;;;15.00;99.90;;;;;;5024811;28;20472;-68
2023/07/22 06:00:17;;;;;;;10.63;10.43;;;15.30;99.90;;;;;;5015158;28;20481;-68
2023/07/22 06:02:45;;;;;;;11.10;10.80;;;15.50;99.90;;;;;;5017089;28;20468;-68
2023/07/22 06:05:12;;;;;;;11.20;10.90;;;16.00;99.90;;;;;;5027624;28;20895;-68
2023/07/22 06:07:40;;;;;;;11.10;10.80;;;16.30;99.90;;;;;;5015101;28;20485;-68
2023/07/22 06:10:08;;;;;;;11.27;10.97;;;16.60;99.90;;;;;;5017007;28;21106;-68
2023/07/22 06:12:36;;;;;;;10.90;10.70;;;16.80;99.90;;;;;;5020303;28;20462;-69
2023/07/22 06:15:03;;;;;;;12.00;11.70;;;17.00;99.90;;;;;;5021000;28;20488;-68
2023/07/22 06:17:32;;;;;;;10.77;10.57;;;17.20;99.90;;;;;;5015559;28;20460;-68
2023/07/22 06:20:00;;;;;;;10.90;10.70;;;17.30;99.90;;;;;;5023397;28;20862;-69
2023/07/22 06:22:27;;;;;;;10.77;10.57;;;17.40;99.90;;;;;;5016626;28;20461;-68
2023/07/22 06:24:56;;;;;;;10.60;10.40;;;17.60;99.90;;;;;;5026292;28;20550;-67
2023/07/22 06:27:22;;;;;;;10.80;10.60;;;17.90;99.90;;;;;;5022271;28;20555;-68
2023/07/22 06:29:49;;;;;;;10.90;10.70;;;17.90;99.90;;;;;;5020205;28;20496;-67
2023/07/22 06:32:18;;;;;;;10.90;10.70;;;17.80;99.90;;;;;;5018082;28;20464;-67
2023/07/22 06:34:46;;;;;;;11.00;10.80;;;17.80;99.90;;;;;;5022041;28;20471;-67
2023/07/22 06:37:13;;;;;;;10.90;10.70;;;17.90;99.90;;;;;;5025636;28;20464;-67
2023/07/22 06:39:40;;;;;;;10.90;10.70;;;18.20;99.90;;;;;;5021931;28;20465;-68
2023/07/22 06:42:07;;;;;;;11.20;10.90;;;18.20;99.90;;;;;;5025269;28;20461;-67
2023/07/22 06:44:35;;;;;;;11.20;10.90;;;18.30;99.90;;;;;;5013934;28;21030;-67
2023/07/22 06:47:02;;;;;;;11.17;10.87;;;18.60;99.90;;;;;;5018687;28;20483;-67
2023/07/22 06:49:30;;;;;;;10.80;10.60;;;18.70;99.90;;;;;;5024126;28;20468;-68
2023/07/22 06:51:58;;;;;;;11.43;11.13;;;18.10;99.90;;;;;;5024624;28;20503;-68
2023/07/22 06:54:24;;;;;;;11.20;10.90;;;18.20;99.90;;;;;;5026439;28;20461;-66
2023/07/22 06:56:52;;;;;;;11.07;10.80;;;18.00;99.90;;;;;;5024670;28;20477;-67
2023/07/22 06:59:19;;;;;;;11.03;10.83;;;18.10;99.90;;;;;;5024759;28;20936;-67
2023/07/22 07:01:47;;;;;;;11.00;10.80;;;18.30;99.90;;;;;;5027260;28;20461;-66
2023/07/22 07:04:13;;;;;;;11.53;11.23;;;18.40;99.90;;;;;;5020784;28;20497;-66
2023/07/22 07:06:41;;;;;;;11.17;10.87;;;18.30;99.90;;;;;;5025244;28;20893;-66
2023/07/22 07:09:10;;;;;;;11.00;10.80;;;18.60;99.90;;;;;;5025636;28;20461;-66
2023/07/22 07:11:37;;;;;;;10.90;10.70;;;18.50;99.90;;;;;;5024892;28;20496;-67
2023/07/22 07:14:04;;;;;;;11.27;10.97;;;18.50;99.90;;;;;;5018551;28;20571;-65
2023/07/22 07:16:32;;;;;;;11.30;11.00;;;18.70;99.90;;;;;;5019491;28;20631;-66
2023/07/22 07:18:59;;;;;;;11.33;11.03;;;18.60;99.90;;;;;;5021315;28;20903;-65
2023/07/22 07:21:27;;;;;;;11.20;10.90;;;18.90;99.90;;;;;;5026033;28;20459;-67
2023/07/22 07:23:55;;;;;;;11.20;10.90;;;19.00;99.90;;;;;;5017597;28;20493;-66
2023/07/22 07:26:24;;;;;;;11.57;11.27;;;19.00;99.90;;;;;;5026445;28;20505;-66
2023/07/22 07:28:52;;;;;;;11.63;11.33;;;18.90;99.90;;;;;;5021013;28;20464;-66
2023/07/22 07:31:19;;;;;;;11.37;11.07;;;19.10;99.90;;;;;;5031073;28;20464;-65
2023/07/22 07:33:47;;;;;;;11.63;11.33;;;19.10;99.90;;;;;;5025628;28;20543;-66
2023/07/22 07:36:14;;;;;;;11.80;11.50;;;19.20;99.90;;;;;;5029302;28;20804;-66
2023/07/22 07:38:42;;;;;;;11.33;11.03;;;19.50;99.90;;;;;;5028435;28;20599;-66
2023/07/22 07:41:11;;;;;;;11.80;11.50;;;19.80;99.90;;;;;;5030692;28;20464;-66
2023/07/22 07:43:39;;;;;;;11.77;11.47;;;19.70;99.90;;;;;;5021987;28;20889;-67
2023/07/22 07:46:21;;;;;;;12.20;11.90;;;20.00;99.90;;;;;;5021839;28;20461;-66
2023/07/22 07:48:50;;;;;;;12.37;12.07;;;20.50;99.90;;;;;;5028033;28;20463;-66
2023/07/22 07:51:18;;;;;;;11.90;11.60;;;20.50;99.90;;;;;;5027709;28;20456;-66
2023/07/22 07:53:47;;;;;;;11.60;11.30;;;20.60;99.90;;;;;;5022426;28;20465;-66
2023/07/22 07:56:14;;;;;;;11.70;11.40;;;20.70;99.90;;;;;;5030290;28;20464;-65
2023/07/22 07:58:44;;;;;;;11.93;11.63;;;20.60;99.90;;;;;;5030128;28;20871;-65
2023/07/22 08:01:12;;;;;;;12.10;11.80;;;20.60;99.90;;;;;;5023928;28;20475;-66
2023/07/22 08:03:41;;;;;;;12.00;11.70;;;20.30;99.90;;;;;;5026093;28;20465;-65
2023/07/22 08:06:08;;;;;;;12.20;11.90;;;20.30;99.90;;;;;;5023699;28;20591;-66
2023/07/22 08:08:36;;;;;;;12.10;11.80;;;20.40;99.90;;;;;;5030466;28;20457;-65
2023/07/22 08:11:05;;;;;;;11.70;11.40;;;20.40;99.90;;;;;;5026053;28;20468;-67
2023/07/22 08:13:34;;;;;;;12.37;12.07;;;20.60;99.90;;;;;;5029498;28;20888;-66
2023/07/22 08:16:04;;;;;;;12.53;12.23;;;20.80;99.90;;;;;;5027077;28;21009;-67
2023/07/22 08:18:31;;;;;;;12.50;12.20;;;20.60;99.90;;;;;;5025939;28;20522;-66
2023/07/22 08:20:58;;;;;;;12.20;11.90;;;20.60;99.90;;;;;;5024489;28;20473;-66
2023/07/22 08:23:26;;;;;;;12.70;12.40;;;20.70;99.90;;;;;;5028881;28;20512;-66
2023/07/22 08:25:53;;;;;;;12.63;12.33;;;21.10;99.90;;;;;;5027615;28;20819;-66
2023/07/22 08:28:20;;;;;;;12.60;12.30;;;21.60;99.90;;;;;;5028114;28;20901;-65
2023/07/22 08:30:48;;;;;;;12.13;11.83;;;22.00;99.90;;;;;;5027883;28;20452;-66
2023/07/22 08:33:17;;;;;;;12.70;12.40;;;21.90;99.90;;;;;;5025015;28;20477;-66
2023/07/22 08:35:45;;;;;;;12.73;12.43;;;21.70;99.90;;;;;;5020684;28;20497;-66
2023/07/22 08:38:11;;;;;;;12.40;12.10;;;21.30;99.90;;;;;;5017019;28;20508;-67
2023/07/22 08:40:40;;;;;;;12.40;12.10;;;21.40;99.90;;;;;;5025101;28;20461;-67
2023/07/22 08:43:09;;;;;;;12.20;11.90;;;21.40;99.90;;;;;;5027685;28;20488;-66
2023/07/22 08:45:38;;;;;;;12.50;12.20;;;21.90;99.90;;;;;;5027796;28;22066;-65
2023/07/22 08:48:09;;;;;;;12.60;12.30;;;21.60;99.90;;;;;;5024442;28;20575;-66
2023/07/22 08:50:43;;;;;;;12.40;12.10;;;21.80;99.90;;;;;;5026790;28;20465;-66
2023/07/22 08:53:11;;;;;;;12.00;11.70;;;21.80;99.90;;;;;;5024383;28;20499;-65
2023/07/22 08:55:39;;;;;;;12.50;12.20;;;21.90;99.90;;;;;;5021838;28;20464;-67
2023/07/22 08:58:08;;;;;;;12.50;12.20;;;22.20;99.90;;;;;;5022467;28;20472;-66
2023/07/22 09:00:36;;;;;;;12.80;12.50;;;22.80;99.90;;;;;;5023816;28;20473;-66
2023/07/22 09:03:04;;;;;;;12.63;12.33;;;23.30;99.90;;;;;;5027747;28;20461;-66
2023/07/22 09:05:33;;;;;;;12.77;12.47;;;23.30;99.90;;;;;;5021853;28;20940;-65
2023/07/22 09:08:05;;;;;;;12.50;12.20;;;22.70;99.90;;;;;;5029347;28;20501;-66
2023/07/22 09:10:32;;;;;;;12.30;12.00;;;22.40;99.90;;;;;;5021374;28;20909;-67
2023/07/22 09:13:00;;;;;;;12.77;12.47;;;22.70;99.90;;;;;;5023413;28;20464;-66
2023/07/22 09:15:28;;;;;;;12.60;12.30;;;22.70;99.90;;;;;;5018554;28;20492;-66
2023/07/22 09:17:55;;;;;;;12.30;12.00;;;22.70;99.90;;;;;;5028092;28;20460;-65
2023/07/22 09:20:22;;;;;;;12.30;12.00;;;22.50;99.90;;;;;;5022338;28;20543;-65
2023/07/22 09:22:50;;;;;;;12.40;12.10;;;22.70;99.90;;;;;;5023186;28;20465;-66
2023/07/22 09:25:20;;;;;;;12.73;12.43;;;22.40;99.90;;;;;;5025618;28;20497;-65
2023/07/22 09:27:47;;;;;;;12.10;11.80;;;21.90;99.90;;;;;;5022581;28;20461;-65
2023/07/22 09:30:22;;;;;;;12.30;12.00;;;21.90;99.90;;;;;;5028835;28;20866;-65
2023/07/22 09:32:49;;;;;;;12.73;12.43;;;22.30;99.90;;;;;;5025189;28;20491;-65
2023/07/22 09:35:18;;;;;;;13.07;12.67;;;22.70;99.90;;;;;;5028650;28;20472;-67
2023/07/22 09:37:45;;;;;;;12.20;11.90;;;23.10;99.90;;;;;;5025805;28;20456;-65
2023/07/22 09:40:16;;;;;;;11.47;11.17;;;23.10;99.90;;;;;;5027207;28;20456;-64
2023/07/22 09:42:49;;;;;;;12.10;11.80;;;23.10;99.90;;;;;;5023489;28;20551;-65
2023/07/22 09:45:16;;;;;;;12.40;12.10;;;23.10;99.90;;;;;;5021697;28;20500;-67
2023/07/22 09:47:44;;;;;;;12.53;12.23;;;23.20;99.90;;;;;;5018563;28;20465;-66
2023/07/22 09:50:19;;;;;;;12.43;12.13;;;23.50;99.90;;;;;;5014630;28;20492;-66
2023/07/22 09:52:48;;;;;;;12.73;12.43;;;23.20;99.90;;;;;;5022629;28;20462;-66
2023/07/22 09:55:17;;;;;;;12.60;12.30;;;23.20;99.90;;;;;;5020887;28;20568;-65
2023/07/22 09:57:47;;;;;;;12.20;11.90;;;22.60;99.90;;;;;;5021277;28;20569;-67
2023/07/22 10:00:19;;;;;;;12.63;12.33;;;22.40;99.90;;;;;;5017714;28;20853;-65
2023/07/22 10:02:49;;;;;;;11.97;11.67;;;23.00;99.90;;;;;;5024020;28;20513;-66
2023/07/22 10:05:17;;;;;;;12.50;12.20;;;23.50;99.90;;;;;;5025132;28;20542;-65
2023/07/22 10:07:46;;;;;;;12.20;11.90;;;24.00;99.90;;;;;;5025376;28;20457;-64
2023/07/22 10:10:13;;;;;;;11.97;11.67;;;24.10;99.90;;;;;;5021313;28;20471;-65
2023/07/22 10:12:42;;;;;;;12.40;12.10;;;24.40;99.90;;;;;;5024446;28;20472;-64
2023/07/22 10:15:12;;;;;;;12.00;11.70;;;24.70;99.90;;;;;;5022036;28;20484;-65
2023/07/22 10:17:40;;;;;;;12.37;12.07;;;25.30;99.90;;;;;;5028595;28;20557;-65
2023/07/22 10:20:10;;;;;;;12.23;11.93;;;25.40;99.90;;;;;;5021986;28;22852;-67
2023/07/22 10:22:38;;;;;;;12.20;11.90;;;25.60;99.90;;;;;;5026035;28;20483;-65
2023/07/22 10:25:07;;;;;;;12.07;11.77;;;25.40;99.90;;;;;;5026005;28;20509;-65
2023/07/22 10:27:35;;;;;;;12.70;12.40;;;25.00;99.90;;;;;;5024333;28;20471;-65
2023/07/22 10:30:02;;;;;;;12.80;12.50;;;24.60;99.90;;;;;;5024362;28;20475;-64
2023/07/22 10:32:35;;;;;;;12.50;12.20;;;24.40;99.90;;;;;;5027162;28;20802;-65
2023/07/22 10:35:05;;;;;;;12.43;12.13;;;24.20;99.90;;;;;;5027185;28;20966;-64
2023/07/22 10:37:33;;;;;;;11.90;11.60;;;24.10;99.90;;;;;;5019613;28;20602;-64
2023/07/22 10:40:25;;;;;;;12.07;11.77;;;24.60;99.90;;;;;;5027490;28;20540;-64
2023/07/22 10:42:54;;;;;;;12.40;12.10;;;24.60;99.90;;;;;;5020563;28;20987;-64
2023/07/22 10:45:29;;;;;;;12.13;11.83;;;24.80;99.90;;;;;;5027327;28;20488;-66
2023/07/22 10:48:07;;;;;;;12.20;11.90;;;25.00;99.90;;;;;;5020338;28;20457;-64
2023/07/22 10:50:44;;;;;;;12.47;12.17;;;25.70;99.90;;;;;;5023021;28;20547;-65
2023/07/22 10:53:13;;;;;;;12.53;12.23;;;26.50;99.90;;;;;;5020953;28;20818;-64
2023/07/22 10:56:06;;;;;;;12.00;11.70;;;26.20;99.90;;;;;;5027282;28;20467;-65
2023/07/22 10:58:33;;;;;;;12.40;12.10;;;26.20;99.50;;;;;;5022258;28;20465;-65
2023/07/22 11:01:25;;;;;;;12.90;12.60;;;26.50;99.80;;;;;;5027596;28;20927;-65
2023/07/22 11:04:31;;;;;;;12.80;12.50;;;27.20;99.20;;;;;;5023156;28;20457;-65
2023/07/22 11:07:00;;;;;;;12.50;12.20;;;27.70;97.40;;;;;;4990235;28;21103;-64
2023/07/22 11:09:38;;;;;;;12.90;12.50;;;27.90;97.20;;;;;;5026452;28;20474;-65
2023/07/22 11:12:06;;;;;;;11.97;11.67;;;27.60;96.90;;;;;;5022789;28;20468;-65
2023/07/22 11:14:35;;;;;;;11.50;11.20;;;27.70;95.80;;;;;;5027387;28;20461;-65
2023/07/22 11:17:05;;;;;;;12.10;11.80;;;27.80;96.20;;;;;;5024304;28;20486;-66
2023/07/22 11:19:34;;;;;;;11.60;11.30;;;27.70;95.80;;;;;;5026046;28;20556;-65
2023/07/22 11:22:02;;;;;;;11.80;11.50;;;28.10;95.20;;;;;;5026096;28;20457;-64
2023/07/22 11:24:29;;;;;;;11.70;11.40;;;28.30;94.50;;;;;;5020108;28;20818;-65
2023/07/22 11:26:56;;;;;;;12.20;11.90;;;27.70;93.80;;;;;;5021484;28;20465;-66
2023/07/22 11:29:25;;;;;;;12.00;11.70;;;27.50;94.20;;;;;;5026217;28;20468;-65
2023/07/22 11:31:52;;;;;;;11.83;11.53;;;27.70;94.20;;;;;;5024935;28;20966;-65
2023/07/22 11:34:21;;;;;;;12.17;11.87;;;28.40;93.20;;;;;;5026287;28;20551;-64
2023/07/22 11:36:50;;;;;;;12.30;12.00;;;28.80;92.80;;;;;;5020340;28;20456;-64
2023/07/22 11:39:18;;;;;;;12.03;11.73;;;28.90;91.80;;;;;;5018400;28;20477;-64
2023/07/22 11:41:46;;;;;;;11.40;11.10;;;28.90;90.70;;;;;;5023376;28;20449;-66
2023/07/22 11:44:15;;;;;;;10.60;10.40;;;28.90;90.00;;;;;;5023575;28;20710;-66
2023/07/22 11:46:50;;;;;;;12.20;11.90;;;29.20;88.40;;;;;;5026797;28;20500;-65
2023/07/22 11:49:25;;;;;;;12.23;11.93;;;29.20;87.30;;;;;;5023834;28;20503;-65
2023/07/22 11:51:56;;;;;;;13.10;12.77;;;28.90;87.10;;;;;;5024839;28;20488;-64
2023/07/22 11:54:23;;;;;;;13.10;12.80;;;28.60;85.60;;;;;;5023724;28;20469;-64
2023/07/22 11:56:50;;;;;;;11.83;11.53;;;28.20;87.60;;;;;;5014906;28;20460;-63
2023/07/22 11:59:18;;;;;;;11.73;11.43;;;27.70;82.60;;;;;;5018169;28;21067;-65
2023/07/22 12:01:46;;;;;;;12.40;12.10;;;27.20;82.60;;;;;;5026802;28;20465;-64
2023/07/22 12:04:15;;;;;;;11.83;11.53;;;27.50;82.00;;;;;;5025259;28;20456;-65
2023/07/22 12:06:42;;;;;;;11.40;11.10;;;27.30;79.80;;;;;;5017258;28;20492;-64
2023/07/22 12:09:11;;;;;;;11.73;11.43;;;27.60;79.10;;;;;;5026622;28;20998;-65
2023/07/22 12:11:38;;;;;;;11.13;10.90;;;26.70;78.70;;;;;;5026434;28;20469;-65
2023/07/22 12:14:08;;;;;;;11.57;11.27;;;27.50;77.40;;;;;;5020460;28;20548;-65
2023/07/22 12:16:37;;;;;;;11.50;11.20;;;28.00;76.90;;;;;;5026341;28;20476;-64
2023/07/22 12:19:05;;;;;;;11.30;11.00;;;28.00;77.10;;;;;;5030581;28;20959;-66
2023/07/22 12:21:32;;;;;;;12.33;12.03;;;27.90;74.10;;;;;;5028847;28;20452;-66
2023/07/22 12:24:00;;;;;;;12.43;12.13;;;27.50;75.20;;;;;;5026547;28;20535;-66
2023/07/22 12:26:29;;;;;;;12.43;12.13;;;28.30;72.40;;;;;;5021851;28;20545;-65
2023/07/22 12:28:56;;;;;;;12.30;12.00;;;28.50;72.90;;;;;;5030242;28;20488;-65
2023/07/22 12:31:24;;;;;;;13.20;12.80;;;28.30;72.00;;;;;;5026572;28;20530;-65
2023/07/22 12:33:52;;;;;;;12.90;12.60;;;28.60;72.50;;;;;;5024230;28;20472;-66
2023/07/22 12:36:19;;;;;;;12.60;12.30;;;28.80;70.20;;;;;;5029694;28;20467;-65
2023/07/22 12:38:46;;;;;;;12.70;12.40;;;28.10;68.80;;;;;;5028154;28;20471;-65